createdAt,value
2019-04-14T00:00:07.740Z,49.60
2019-04-14T00:02:57.773Z,49.70
2019-04-14T00:05:49.625Z,49.80
2019-04-14T00:08:39.354Z,49.80
2019-04-14T00:11:28.070Z,49.80
2019-04-14T00:14:16.530Z,49.70
2019-04-14T00:17:05.022Z,49.80
2019-04-14T00:19:54.430Z,49.70
2019-04-14T00:22:44.618Z,49.60
2019-04-14T00:25:32.914Z,49.70
2019-04-14T00:28:21.223Z,49.60
2019-04-14T00:31:09.494Z,49.60
2019-04-14T00:34:09.321Z,49.50
2019-04-14T00:36:59.261Z,49.50
2019-04-14T00:39:49.039Z,49.40
2019-04-14T00:42:41.635Z,49.40
2019-04-14T00:45:40.474Z,49.30
2019-04-14T00:48:24.216Z,49.30
2019-04-14T00:51:13.430Z,49.30
2019-04-14T00:54:02.270Z,49.30
2019-04-14T00:56:51.942Z,49.20
2019-04-14T00:59:40.035Z,49.20
2019-04-14T01:02:28.321Z,49.20
2019-04-14T01:05:17.474Z,49.10
2019-04-14T01:07:50.033Z,49.20
2019-04-14T01:10:39.221Z,49.10
2019-04-14T01:13:28.922Z,49.10
2019-04-14T01:16:20.844Z,49.00
2019-04-14T01:19:08.994Z,49.10
2019-04-14T01:21:58.840Z,49.10
2019-04-14T01:24:48.908Z,49.10
2019-04-14T01:27:39.020Z,49.10
2019-04-14T01:30:28.400Z,49.20
2019-04-14T01:33:16.583Z,49.20
2019-04-14T01:36:06.134Z,48.80
2019-04-14T01:38:55.642Z,49.20
2019-04-14T01:41:45.563Z,49.10
2019-04-14T01:44:35.212Z,49.10
2019-04-14T01:47:25.340Z,49.20
2019-04-14T01:50:14.861Z,49.20
2019-04-14T01:53:08.079Z,49.20
2019-04-14T01:56:14.470Z,49.20
2019-04-14T01:59:04.813Z,49.30
2019-04-14T02:01:54.876Z,49.30
2019-04-14T02:04:44.923Z,49.30
2019-04-14T02:07:34.044Z,49.40
2019-04-14T02:10:23.867Z,49.40
2019-04-14T02:13:13.547Z,49.40
2019-04-14T02:16:16.524Z,49.40
2019-04-14T02:18:53.549Z,49.40
2019-04-14T02:21:25.977Z,49.40
2019-04-14T02:23:58.342Z,49.40
2019-04-14T02:26:29.148Z,49.40
2019-04-14T02:28:59.806Z,49.40
2019-04-14T02:32:23.663Z,49.50
2019-04-14T02:35:02.021Z,49.40
2019-04-14T02:38:03.417Z,49.40
2019-04-14T02:40:57.632Z,49.40
2019-04-14T02:46:34.103Z,49.40
2019-04-14T02:49:19.524Z,49.40
2019-04-14T02:52:14.410Z,49.40
2019-04-14T02:54:59.478Z,49.40
2019-04-14T02:57:45.376Z,49.30
2019-04-14T03:00:41.727Z,49.30
2019-04-14T03:03:30.560Z,49.40
2019-04-14T03:06:19.381Z,49.30
2019-04-14T03:09:20.552Z,49.30
2019-04-14T03:12:01.642Z,49.30
2019-04-14T03:17:49.359Z,49.30
2019-04-14T03:20:59.538Z,49.30
2019-04-14T03:23:50.639Z,49.20
2019-04-14T03:26:51.903Z,49.10
2019-04-14T03:29:39.238Z,48.90
2019-04-14T03:33:05.537Z,48.70
2019-04-14T03:35:51.956Z,48.60
2019-04-14T03:38:13.230Z,48.50
2019-04-14T03:41:14.468Z,48.30
2019-04-14T03:43:41.368Z,48.20
2019-04-14T03:46:45.223Z,48.00
2019-04-14T03:49:32.235Z,47.90
2019-04-14T03:52:21.797Z,47.80
2019-04-14T03:55:02.320Z,47.80
2019-04-14T03:57:34.449Z,47.60
2019-04-14T04:00:24.580Z,47.50
2019-04-14T04:03:13.661Z,47.40
2019-04-14T04:06:03.163Z,47.40
2019-04-14T04:08:53.149Z,47.50
2019-04-14T04:11:41.862Z,47.50
2019-04-14T04:14:31.333Z,47.50
2019-04-14T04:17:25.437Z,47.50
2019-04-14T04:20:19.660Z,47.50
2019-04-14T04:23:20.475Z,47.60
2019-04-14T04:26:16.929Z,47.60
2019-04-14T04:29:11.215Z,47.60
2019-04-14T04:32:18.435Z,47.60
2019-04-14T04:35:11.345Z,47.60
2019-04-14T04:38:07.343Z,47.60
2019-04-14T04:40:57.593Z,47.70
2019-04-14T04:43:47.320Z,47.70
2019-04-14T04:46:37.319Z,47.70
2019-04-14T04:49:28.970Z,47.70
2019-04-14T04:52:17.316Z,47.70
2019-04-14T04:55:06.748Z,47.80
2019-04-14T04:57:56.643Z,47.80
2019-04-14T05:00:48.498Z,47.80
2019-04-14T05:03:36.385Z,47.70
2019-04-14T05:06:43.770Z,47.70
2019-04-14T05:09:38.822Z,47.70
2019-04-14T05:12:39.122Z,47.70
2019-04-14T05:15:35.848Z,47.80
2019-04-14T05:18:25.236Z,47.80
2019-04-14T05:21:14.834Z,47.80
2019-04-14T05:24:03.100Z,47.80
2019-04-14T05:26:52.667Z,47.90
2019-04-14T05:29:43.014Z,47.80
2019-04-14T05:32:32.623Z,47.80
2019-04-14T05:35:22.632Z,47.80
2019-04-14T05:38:12.576Z,47.80
2019-04-14T05:41:02.726Z,47.70
2019-04-14T05:43:55.736Z,47.80
2019-04-14T05:46:42.472Z,47.70
2019-04-14T05:49:40.950Z,47.70
2019-04-14T05:52:23.012Z,47.60
2019-04-14T05:55:13.473Z,47.60
2019-04-14T05:58:03.518Z,47.60
2019-04-14T06:00:53.362Z,47.60
2019-04-14T06:03:41.620Z,47.60
2019-04-14T06:06:29.807Z,47.60
2019-04-14T06:09:18.025Z,47.60
2019-04-14T06:12:06.540Z,47.60
2019-04-14T06:14:55.108Z,47.60
2019-04-14T06:17:43.527Z,47.70
2019-04-14T06:20:33.285Z,47.80
2019-04-14T06:23:21.777Z,47.80
2019-04-14T06:26:10.364Z,47.70
2019-04-14T06:28:58.736Z,47.60
2019-04-14T06:31:45.919Z,47.60
2019-04-14T06:34:51.337Z,47.60
2019-04-14T06:37:53.400Z,47.70
2019-04-14T06:40:43.433Z,47.90
2019-04-14T06:43:31.795Z,47.80
2019-04-14T06:46:20.363Z,47.80
2019-04-14T06:49:09.153Z,47.80
2019-04-14T06:51:58.387Z,47.80
2019-04-14T06:54:47.221Z,47.60
2019-04-14T06:57:35.777Z,47.40
2019-04-14T07:00:25.289Z,47.10
2019-04-14T07:03:13.765Z,46.40
2019-04-14T07:06:03.055Z,46.30
2019-04-14T07:08:51.252Z,46.00
2019-04-14T07:11:39.987Z,46.60
2019-04-14T07:14:32.028Z,47.00
2019-04-14T07:17:19.940Z,47.20
2019-04-14T07:20:09.748Z,47.40
2019-04-14T07:22:57.906Z,47.30
2019-04-14T07:26:05.394Z,47.40
2019-04-14T07:28:57.000Z,47.40
2019-04-14T07:31:45.358Z,47.20
2019-04-14T07:34:41.213Z,47.10
2019-04-14T07:37:47.209Z,46.90
2019-04-14T07:40:49.331Z,46.90
2019-04-14T07:43:42.390Z,46.70
2019-04-14T07:46:44.336Z,46.80
2019-04-14T07:49:46.386Z,46.80
2019-04-14T07:52:52.658Z,46.80
2019-04-14T07:55:42.660Z,46.80
2019-04-14T07:58:32.752Z,47.20
2019-04-14T08:01:31.864Z,47.00
2019-04-14T08:04:21.676Z,47.20
2019-04-14T08:07:09.730Z,47.20
2019-04-14T08:09:58.742Z,47.80
2019-04-14T08:12:47.450Z,48.50
2019-04-14T08:15:36.330Z,48.50
2019-04-14T08:18:24.370Z,48.90
2019-04-14T08:21:13.032Z,49.10
2019-04-14T08:24:01.541Z,49.30
2019-04-14T08:26:49.960Z,49.50
2019-04-14T08:29:38.985Z,49.80
2019-04-14T08:32:14.264Z,49.40
2019-04-14T08:35:02.765Z,49.50
2019-04-14T08:37:51.642Z,49.50
2019-04-14T08:40:40.217Z,49.40
2019-04-14T08:43:38.935Z,49.30
2019-04-14T08:46:44.987Z,49.50
2019-04-14T08:49:53.515Z,49.30
2019-04-14T08:52:43.173Z,49.40
2019-04-14T08:55:35.590Z,49.50
2019-04-14T08:58:31.985Z,49.70
2019-04-14T09:01:27.805Z,49.60
2019-04-14T09:04:34.321Z,49.70
2019-04-14T09:07:29.801Z,49.80
2019-04-14T09:10:25.817Z,49.70
2019-04-14T09:13:14.109Z,49.60
2019-04-14T09:16:02.544Z,49.60
2019-04-14T09:18:53.623Z,50.50
2019-04-14T09:21:41.395Z,49.90
2019-04-14T09:24:30.485Z,49.90
2019-04-14T09:27:18.806Z,49.70
2019-04-14T09:30:08.683Z,49.80
2019-04-14T09:32:57.191Z,50.30
2019-04-14T09:35:45.449Z,49.90
2019-04-14T09:38:34.425Z,49.60
2019-04-14T09:41:23.182Z,49.70
2019-04-14T09:44:11.981Z,49.60
2019-04-14T09:47:00.890Z,49.60
2019-04-14T09:49:49.745Z,49.60
2019-04-14T09:52:38.204Z,49.50
2019-04-14T09:55:26.772Z,49.30
2019-04-14T09:58:15.337Z,49.20
2019-04-14T10:01:03.887Z,49.10
2019-04-14T10:03:52.647Z,49.00
2019-04-14T10:06:41.268Z,48.90
2019-04-14T10:09:29.600Z,48.90
2019-04-14T10:12:18.833Z,48.80
2019-04-14T10:15:08.465Z,48.70
2019-04-14T10:17:56.718Z,48.60
2019-04-14T10:20:44.811Z,48.50
2019-04-14T10:23:34.540Z,48.50
2019-04-14T10:26:23.484Z,48.50
2019-04-14T10:29:13.724Z,48.40
2019-04-14T10:32:02.215Z,48.40
2019-04-14T10:34:50.374Z,48.50
2019-04-14T10:37:38.925Z,48.40
2019-04-14T10:40:27.268Z,48.40
2019-04-14T10:43:16.683Z,48.40
2019-04-14T10:46:05.441Z,48.40
2019-04-14T10:48:54.274Z,48.40
2019-04-14T10:51:42.586Z,48.40
2019-04-14T10:54:31.564Z,48.30
2019-04-14T10:57:20.450Z,48.40
2019-04-14T11:00:11.335Z,48.30
2019-04-14T11:02:59.644Z,48.30
2019-04-14T11:05:49.834Z,48.30
2019-04-14T11:08:38.840Z,48.30
2019-04-14T11:11:27.385Z,48.20
2019-04-14T11:14:15.957Z,48.20
2019-04-14T11:17:04.712Z,48.20
2019-04-14T11:19:53.235Z,48.20
2019-04-14T11:22:41.901Z,48.20
2019-04-14T11:25:30.429Z,48.20
2019-04-14T11:28:18.759Z,48.20
2019-04-14T11:31:08.165Z,48.20
2019-04-14T11:33:59.771Z,48.20
2019-04-14T11:36:55.774Z,48.10
2019-04-14T11:39:45.600Z,48.10
2019-04-14T11:42:34.592Z,48.00
2019-04-14T11:45:23.028Z,48.00
2019-04-14T11:48:12.182Z,48.60
2019-04-14T11:51:00.692Z,49.10
2019-04-14T11:53:49.679Z,49.10
2019-04-14T11:56:38.967Z,49.20
2019-04-14T11:59:32.371Z,49.10
2019-04-14T12:02:24.887Z,49.10
2019-04-14T12:05:32.187Z,49.10
2019-04-14T12:08:22.273Z,49.20
2019-04-14T12:11:10.694Z,49.20
2019-04-14T12:13:59.605Z,49.10
2019-04-14T12:16:48.333Z,49.20
2019-04-14T12:19:37.937Z,49.20
2019-04-14T12:22:26.595Z,49.20
2019-04-14T12:25:14.993Z,49.20
2019-04-14T12:28:04.671Z,49.10
2019-04-14T12:30:55.475Z,49.10
2019-04-14T12:33:44.729Z,49.10
2019-04-14T12:36:33.500Z,49.10
2019-04-14T12:39:24.619Z,49.10
2019-04-14T12:42:14.518Z,49.20
2019-04-14T12:45:04.924Z,49.30
2019-04-14T12:47:55.115Z,48.80
2019-04-14T12:50:44.951Z,48.60
2019-04-14T12:53:33.642Z,48.50
2019-04-14T12:56:24.728Z,48.40
2019-04-14T12:59:15.153Z,48.40
2019-04-14T13:02:05.002Z,48.30
2019-04-14T13:04:55.350Z,48.30
2019-04-14T13:07:44.977Z,48.20
2019-04-14T13:10:33.658Z,48.20
2019-04-14T13:13:22.345Z,48.20
2019-04-14T13:16:10.430Z,48.00
2019-04-14T13:18:58.904Z,48.00
2019-04-14T13:21:47.761Z,47.90
2019-04-14T13:24:36.261Z,47.80
2019-04-14T13:27:25.778Z,47.70
2019-04-14T13:30:16.156Z,47.70
2019-04-14T13:33:05.263Z,47.70
2019-04-14T13:35:53.381Z,47.70
2019-04-14T13:38:41.805Z,47.60
2019-04-14T13:41:30.307Z,47.50
2019-04-14T13:44:19.477Z,47.60
2019-04-14T13:47:08.846Z,47.60
2019-04-14T13:49:57.005Z,47.60
2019-04-14T13:52:46.970Z,47.50
2019-04-14T13:55:35.763Z,47.50
2019-04-14T13:58:24.817Z,47.40
2019-04-14T14:01:13.124Z,47.50
2019-04-14T14:04:01.213Z,47.50
2019-04-14T14:06:49.735Z,47.50
2019-04-14T14:09:38.178Z,47.50
2019-04-14T14:12:31.323Z,47.60
2019-04-14T14:15:40.553Z,47.60
2019-04-14T14:18:46.994Z,47.60
2019-04-14T14:21:42.708Z,47.60
2019-04-14T14:24:41.357Z,47.60
2019-04-14T14:27:29.983Z,47.60
2019-04-14T14:30:20.269Z,48.20
2019-04-14T14:33:09.122Z,47.60
2019-04-14T14:35:39.839Z,47.60
2019-04-14T14:38:28.655Z,47.60
2019-04-14T14:41:17.877Z,47.60
2019-04-14T14:44:06.270Z,47.60
2019-04-14T14:46:56.562Z,47.60
2019-04-14T14:50:01.561Z,47.60
2019-04-14T14:52:50.316Z,47.60
2019-04-14T14:55:38.897Z,47.60
2019-04-14T14:58:27.355Z,47.60
2019-04-14T15:01:16.015Z,47.60
2019-04-14T15:04:04.346Z,47.60
2019-04-14T15:06:54.024Z,47.70
2019-04-14T15:09:43.389Z,47.60
2019-04-14T15:12:32.595Z,47.60
2019-04-14T15:15:21.220Z,47.60
2019-04-14T15:18:09.812Z,47.60
2019-04-14T15:20:58.260Z,47.60
2019-04-14T15:23:47.679Z,47.60
2019-04-14T15:26:36.171Z,47.60
2019-04-14T15:29:44.106Z,47.60
2019-04-14T15:32:33.929Z,47.60
2019-04-14T15:35:23.935Z,47.60
2019-04-14T15:38:12.482Z,47.60
2019-04-14T15:41:00.669Z,47.60
2019-04-14T15:43:49.190Z,47.60
2019-04-14T15:46:37.827Z,48.30
2019-04-14T15:49:27.661Z,47.70
2019-04-14T15:52:15.892Z,47.70
2019-04-14T15:55:07.295Z,47.90
2019-04-14T15:58:09.679Z,48.30
2019-04-14T16:01:17.209Z,48.60
2019-04-14T16:04:10.235Z,50.20
2019-04-14T16:07:09.181Z,51.60
2019-04-14T16:10:08.115Z,52.30
2019-04-14T16:13:00.926Z,52.60
2019-04-14T16:15:51.064Z,52.70
2019-04-14T16:18:47.318Z,53.00
2019-04-14T16:21:36.821Z,53.00
2019-04-14T16:24:25.313Z,53.30
2019-04-14T16:27:18.035Z,53.30
2019-04-14T16:30:09.264Z,53.20
2019-04-14T16:33:11.443Z,52.90
2019-04-14T16:36:00.702Z,53.00
2019-04-14T16:38:49.237Z,52.90
2019-04-14T16:41:37.623Z,52.80
2019-04-14T16:44:26.607Z,52.70
2019-04-14T16:47:16.180Z,52.30
2019-04-14T16:50:06.125Z,52.50
2019-04-14T16:53:13.169Z,52.30
2019-04-14T16:56:06.366Z,52.10
2019-04-14T16:58:57.015Z,51.90
2019-04-14T17:01:46.251Z,51.80
2019-04-14T17:04:35.293Z,51.60
2019-04-14T17:07:24.078Z,51.40
2019-04-14T17:10:12.846Z,51.20
2019-04-14T17:13:01.626Z,51.10
2019-04-14T17:15:54.541Z,51.00
2019-04-14T17:18:44.876Z,50.90
2019-04-14T17:21:35.261Z,50.80
2019-04-14T17:24:25.356Z,50.70
2019-04-14T17:27:21.241Z,50.60
2019-04-14T17:30:31.023Z,50.50
2019-04-14T17:33:36.091Z,50.30
2019-04-14T17:36:41.174Z,50.20
2019-04-14T17:39:31.900Z,50.10
2019-04-14T17:42:25.368Z,50.10
2019-04-14T17:45:15.479Z,50.00
2019-04-14T17:48:11.897Z,49.90
2019-04-14T17:51:03.437Z,49.90
2019-04-14T17:53:53.517Z,49.80
2019-04-14T17:56:55.561Z,49.80
2019-04-14T17:59:44.378Z,49.80
2019-04-14T18:02:34.285Z,49.90
2019-04-14T18:05:24.378Z,50.00
2019-04-14T18:08:29.535Z,50.00
2019-04-14T18:11:36.098Z,50.00
2019-04-14T18:14:42.804Z,50.00
2019-04-14T18:17:44.665Z,50.00
2019-04-14T18:20:34.980Z,50.10
2019-04-14T18:23:23.116Z,50.50
2019-04-14T18:26:11.514Z,50.90
2019-04-14T18:29:18.151Z,51.10
2019-04-14T18:32:18.760Z,51.30
2019-04-14T18:35:19.235Z,51.60
2019-04-14T18:37:51.724Z,51.70
2019-04-14T18:40:42.043Z,51.80
2019-04-14T18:43:34.870Z,51.80
2019-04-14T18:46:25.000Z,51.80
2019-04-14T18:49:17.855Z,51.90
2019-04-14T18:52:11.517Z,51.90
2019-04-14T18:55:16.538Z,51.90
2019-04-14T18:58:20.490Z,52.00
2019-04-14T19:01:19.572Z,52.00
2019-04-14T19:04:08.335Z,52.10
2019-04-14T19:06:57.915Z,52.10
2019-04-14T19:09:46.666Z,52.10
2019-04-14T19:12:36.710Z,52.10
2019-04-14T19:15:42.207Z,52.10
2019-04-14T19:18:34.240Z,52.10
2019-04-14T19:21:27.918Z,52.10
2019-04-14T19:24:16.242Z,52.00
2019-04-14T19:27:05.095Z,52.00
2019-04-14T19:29:56.713Z,51.90
2019-04-14T19:32:46.212Z,52.00
2019-04-14T19:35:34.891Z,51.80
2019-04-14T19:38:24.534Z,51.80
2019-04-14T19:41:12.798Z,51.80
2019-04-14T19:44:02.060Z,51.60
2019-04-14T19:46:50.809Z,51.50
2019-04-14T19:49:39.639Z,51.40
2019-04-14T19:52:29.964Z,51.20
2019-04-14T19:55:20.652Z,51.10
2019-04-14T19:58:11.576Z,51.10
2019-04-14T20:01:00.314Z,51.00
2019-04-14T20:03:49.092Z,50.90
2019-04-14T20:06:37.323Z,50.70
2019-04-14T20:09:25.830Z,50.60
2019-04-14T20:12:15.597Z,50.50
2019-04-14T20:15:05.385Z,50.50
2019-04-14T20:18:01.879Z,50.40
2019-04-14T20:20:57.188Z,50.30
2019-04-14T20:23:47.426Z,50.30
2019-04-14T20:26:39.977Z,50.30
2019-04-14T20:29:33.099Z,50.20
2019-04-14T20:32:23.737Z,50.20
2019-04-14T20:35:15.370Z,50.20
2019-04-14T20:38:04.421Z,50.20
2019-04-14T20:40:52.921Z,50.20
2019-04-14T20:43:41.021Z,50.20
2019-04-14T20:46:29.376Z,50.20
2019-04-14T20:49:18.744Z,50.20
2019-04-14T20:52:07.757Z,50.20
2019-04-14T20:54:55.905Z,50.20
2019-04-14T20:57:44.778Z,50.20
2019-04-14T21:00:33.647Z,50.20
2019-04-14T21:03:32.442Z,50.20
2019-04-14T21:06:40.703Z,50.30
2019-04-14T21:09:30.551Z,50.30
2019-04-14T21:12:23.227Z,50.30
2019-04-14T21:15:32.685Z,50.40
2019-04-14T21:18:22.574Z,50.40
2019-04-14T21:21:21.229Z,50.40
2019-04-14T21:24:27.856Z,51.00
2019-04-14T21:27:20.832Z,50.40
2019-04-14T21:30:21.590Z,50.50
2019-04-14T21:33:28.352Z,50.60
2019-04-14T21:36:30.810Z,50.60
2019-04-14T21:39:26.721Z,50.60
2019-04-14T21:42:15.604Z,50.70
2019-04-14T21:45:05.581Z,50.70
2019-04-14T21:47:53.640Z,50.80
2019-04-14T21:50:42.505Z,50.80
2019-04-14T21:53:30.848Z,50.80
2019-04-14T21:56:19.224Z,51.00
2019-04-14T21:59:25.592Z,51.00
2019-04-14T22:02:24.132Z,51.00
2019-04-14T22:05:14.729Z,51.00
2019-04-14T22:08:04.518Z,51.00
2019-04-14T22:10:54.350Z,51.10
2019-04-14T22:13:42.320Z,51.10
2019-04-14T22:16:30.900Z,51.20
2019-04-14T22:19:20.434Z,51.20
2019-04-14T22:22:08.760Z,51.30
2019-04-14T22:24:57.046Z,51.40
2019-04-14T22:27:45.910Z,51.30
2019-04-14T22:30:34.423Z,51.70
2019-04-14T22:33:22.733Z,51.40
2019-04-14T22:36:10.720Z,51.60
2019-04-14T22:38:58.922Z,51.60
2019-04-14T22:41:47.781Z,51.60
2019-04-14T22:44:36.570Z,51.60
2019-04-14T22:47:25.488Z,51.70
2019-04-14T22:50:15.096Z,51.70
2019-04-14T22:53:03.534Z,51.80
2019-04-14T22:55:52.478Z,51.80
2019-04-14T22:58:41.140Z,51.80
2019-04-14T23:01:37.116Z,51.90
2019-04-14T23:04:26.848Z,52.00
2019-04-14T23:07:32.935Z,52.00
2019-04-14T23:10:22.848Z,51.80
2019-04-14T23:13:12.866Z,52.00
2019-04-14T23:16:05.572Z,51.90
2019-04-14T23:19:07.690Z,51.90
2019-04-14T23:22:06.482Z,51.90
2019-04-14T23:24:54.714Z,51.90
2019-04-14T23:27:43.827Z,51.90
2019-04-14T23:30:32.107Z,51.90
2019-04-14T23:33:20.563Z,52.00
2019-04-14T23:36:09.215Z,51.90
2019-04-14T23:38:58.341Z,51.90
2019-04-14T23:41:46.938Z,52.00
2019-04-14T23:44:35.507Z,52.00
2019-04-14T23:47:23.939Z,52.00
2019-04-14T23:50:13.502Z,52.00
2019-04-14T23:53:01.911Z,52.00
2019-04-14T23:55:50.517Z,52.00
2019-04-14T23:58:39.379Z,52.00
